Terminal Aerodrome Forecast
Issued by NWS Jacksonville, FL

Home | Current Version | Previous Version | Text Only | Print | Product List | Glossary On
Versions: 1 2 3 4 5 6 7 8 9 10 11 12 13 14 15 16 17 18 19 20 21 22 23 24 25 26 27 28
000
FTUS42 KJAX 281021 AAA
TAFGNV
TAF AMD
KGNV 281021Z 2810/2906 00000KT P6SM BKN020
      TEMPO 2811/2813 4SM BR BKN003
     FM281400 04003KT P6SM SCT025
     FM281800 01005KT P6SM VCTS BKN040CB
     FM290100 13003KT P6SM FEW040 SCT100 BKN200=

USA.gov is the U.S. government's official web portal to all federal, state and local government web resources and services.